Boody, Illinois
Current Conditions -  °F | °C
As of 7:54 PM on Saturday 22 Nov 2014 (Local Time) from KDEC Reporting Station
Light Rain Light Rain  
Wind Chill: 53°   Ceiling: 6000
Heat Index: 53°   Visibility: 9mi
Dew Point: 48°   Wind: 21mph
Humidity: 83%   Direction: 190°S
Pressure: 29.94"   Gusts: 32mph
Location:  39.77°N, 89.05°W
Report Text: KDEC 230154Z AUTO 19018G28KT 9SM -RA OVC060 12/09 A2994 RMK AO2 PK WND 19028/0154 RAE0055B12 SLP140 P0000 T01170089 TSNO
Loading
Personal Weather Stations






























Interactive Weather Map New forecast layout! Learn more

10-Day Weather Forecast

Advertisements
Track Severe Weather on mobile